Track Компанцев Слава

Time Latitude Longitude Accuracy (66% radius in meters) Altitude (meters) Speed (km/hour) Bearing (degrees) Battery (%) GPS flag
17:28:12 57.150620 39.348867 8 112.90000152588 0.12999999523163 347.53051757812 8 1 delete
10:52:30 56.993739 39.436182 1 177.80000305176 1.3500000238419 291.18713378906 2 1 delete
10:52:20 56.993702 39.436367 1 178.10000610352 1.3099999427795 296.40563964844 2 1 delete
10:52:10 56.993644 39.436562 1.5 178.80000305176 1.2300000190735 305.46936035156 2 1 delete
10:52:00 56.993560 39.436749 1 178.39999389648 1.1799999475479 311.67114257812 2 1 delete
10:51:50 56.993491 39.436883 1 178.10000610352 1.1599999666214 319.07592773438 2 1 delete
10:51:40 56.993410 39.437010 1 177.80000305176 1.1299999952316 323.0859375 2 1 delete
10:51:30 56.993322 39.437136 1 177.30000305176 1.3500000238419 326.26098632812 2 1 delete
10:51:20 56.993229 39.437271 1 176.89999389648 1.1200000047684 325.49743652344 2 1 delete
10:51:10 56.993136 39.437402 1 176.60000610352 1.1899999380112 325.46997070312 2 1 delete
10:51:00 56.993050 39.437515 1 175.30000305176 1.2300000190735 322.75634765625 2 1 delete
10:50:50 56.992960 39.437638 1 175 1.6399999856949 330.99609375 2 1 delete
10:50:40 56.992866 39.437751 1 174.5 1.2200000286102 319.69665527344 2 1 delete
10:50:30 56.992770 39.437879 1 174.89999389648 1.1699999570847 323.00354003906 2 1 delete
10:50:20 56.992677 39.438003 1 174.10000610352 1.2300000190735 320.36682128906 2 1 delete
10:50:10 56.992592 39.438117 1 174.19999694824 1.1699999570847 318.70239257812 2 1 delete
10:50:00 56.992506 39.438233 1 174.69999694824 1.0199999809265 319.81201171875 2 1 delete
10:49:50 56.992428 39.438358 1 174.19999694824 1.2099999189377 328.22204589844 2 1 delete
10:49:40 56.992344 39.438482 1 173.80000305176 1.2300000190735 325.94787597656 2 1 delete
10:49:30 56.992256 39.438596 1 171.80000305176 1.1999999284744 324.99206542969 2 1 delete
10:49:20 56.992178 39.438709 1 172.19999694824 1.1799999475479 326.56860351562 2 1 delete
10:49:10 56.992082 39.438817 1 171.80000305176 1.1699999570847 326.05224609375 2 1 delete
10:49:00 56.991994 39.438949 1 170.60000610352 1.3500000238419 320.55358886719 2 1 delete
10:48:50 56.991915 39.439079 1 171.60000610352 1.0499999523163 319.921875 2 1 delete
10:48:40 56.991859 39.439219 1 172.10000610352 1.25 303.75 2 1 delete
10:48:30 56.991810 39.439406 1.5 172.30000305176 1.1100000143051 301.48132324219 2 1 delete
10:48:20 56.991773 39.439617 1 170.5 1.3299999237061 287.91320800781 2 1 delete
10:48:10 56.991740 39.439830 1 170.89999389648 1.1999999284744 278.9208984375 2 1 delete
10:48:00 56.991733 39.440038 1 172.10000610352 1.1999999284744 275.23498535156 2 1 delete
10:47:50 56.991717 39.440234 1 171.5 1.2699999809265 279.4921875 2 1 delete
10:47:40 56.991695 39.440449 1 171.30000305176 1.2599999904633 280.61828613281 2 1 delete
10:35:34 56.988678 39.453701 1.5 175.69999694824 1.3199999332428 323.86047363281 2 1 delete
10:35:24 56.988574 39.453809 2 174.80000305176 1.2300000190735 328.44177246094 2 1 delete
10:35:13 56.988449 39.453929 8.5 173.80000305176 1.5299999713898 329.58984375 2 1 delete
10:24:58 56.982003 39.450588 2 177.69999694824 1.2699999809265 51.828002929688 2 1 delete
10:24:48 56.981924 39.450418 3 176.39999389648 1.2599999904633 57.447509765625 2 1 delete
10:24:37 56.981844 39.450296 6.5 178.10000610352 1.2400000095367 40.841674804688 2 1 delete
10:14:24 56.976253 39.454465 1 178 1.1000000238419 287.03430175781 2 1 delete
10:14:19 56.976231 39.454544 1.5 179.19999694824 0.87000000476837 303.486328125 2 1 delete
10:14:04 56.976202 39.454752 1.5 176.89999389648 1.3399999141693 279.64599609375 2 1 delete
10:13:49 56.976098 39.454761 1.5 175 0.77999997138977 327.81555175781 2 1 delete
10:13:19 56.976077 39.454774 1.5 172.39999389648 0 0 2 1 delete
10:12:49 56.976077 39.454774 1 172.39999389648 0 0 2 1 delete
10:12:14 56.976077 39.454774 1 172.39999389648 0 0 2 1 delete
10:11:44 56.976077 39.454774 1 172.39999389648 0 0 2 1 delete
10:11:14 56.976077 39.454774 1 172.39999389648 0 0 2 1 delete
10:10:39 56.976077 39.454774 1 172.39999389648 0 0 2 1 delete
10:10:09 56.976077 39.454774 1.5 172.39999389648 0 0 2 1 delete
10:09:39 56.976077 39.454774 2 172.39999389648 0 0 2 1 delete
10:09:09 56.976077 39.454774 2 172.39999389648 0 0 2 1 delete